sensor_id;sensor_type;location;lat;lon;timestamp;pressure;altitude;pressure_sealevel;temperature;humidity
61506;BME280;47366;51.916;4.574;2023-02-19T00:02:10;101947.50;;;9.39;100.00
61506;BME280;47366;51.916;4.574;2023-02-19T00:04:35;101956.44;;;9.41;100.00
61506;BME280;47366;51.916;4.574;2023-02-19T00:07:00;101962.00;;;9.38;100.00
61506;BME280;47366;51.916;4.574;2023-02-19T00:09:26;101961.03;;;9.39;100.00
61506;BME280;47366;51.916;4.574;2023-02-19T00:11:51;101968.22;;;9.40;100.00
61506;BME280;47366;51.916;4.574;2023-02-19T00:14:19;101967.34;;;9.39;100.00
61506;BME280;47366;51.916;4.574;2023-02-19T00:16:45;101960.16;;;9.38;100.00
61506;BME280;47366;51.916;4.574;2023-02-19T00:19:13;101961.03;;;9.39;100.00
61506;BME280;47366;51.916;4.574;2023-02-19T00:21:39;101965.53;;;9.40;100.00
61506;BME280;47366;51.916;4.574;2023-02-19T00:24:06;101962.75;;;9.41;100.00
61506;BME280;47366;51.916;4.574;2023-02-19T00:26:33;101954.63;;;9.41;100.00
61506;BME280;47366;51.916;4.574;2023-02-19T00:28:59;101965.53;;;9.40;100.00
61506;BME280;47366;51.916;4.574;2023-02-19T00:31:30;101962.81;;;9.40;100.00
61506;BME280;47366;51.916;4.574;2023-02-19T00:33:58;101972.69;;;9.41;100.00
61506;BME280;47366;51.916;4.574;2023-02-19T00:36:25;101966.41;;;9.40;100.00
61506;BME280;47366;51.916;4.574;2023-02-19T00:38:51;101971.69;;;9.43;100.00
61506;BME280;47366;51.916;4.574;2023-02-19T00:41:19;101971.75;;;9.42;100.00
61506;BME280;47366;51.916;4.574;2023-02-19T00:43:52;101982.44;;;9.45;100.00
61506;BME280;47366;51.916;4.574;2023-02-19T00:46:20;101981.63;;;9.43;100.00
61506;BME280;47366;51.916;4.574;2023-02-19T00:48:46;101966.34;;;9.42;100.00
61506;BME280;47366;51.916;4.574;2023-02-19T00:51:12;101983.38;;;9.44;100.00
61506;BME280;47366;51.916;4.574;2023-02-19T00:53:37;101979.78;;;9.43;100.00
61506;BME280;47366;51.916;4.574;2023-02-19T00:56:04;101976.22;;;9.43;100.00
61506;BME280;47366;51.916;4.574;2023-02-19T00:58:29;101986.06;;;9.44;100.00
61506;BME280;47366;51.916;4.574;2023-02-19T01:00:54;101988.78;;;9.44;100.00
61506;BME280;47366;51.916;4.574;2023-02-19T01:03:20;101988.72;;;9.45;100.00
61506;BME280;47366;51.916;4.574;2023-02-19T01:05:49;101987.97;;;9.42;100.00
61506;BME280;47366;51.916;4.574;2023-02-19T01:08:15;101989.69;;;9.44;100.00
61506;BME280;47366;51.916;4.574;2023-02-19T01:10:40;101987.91;;;9.43;100.00
61506;BME280;47366;51.916;4.574;2023-02-19T01:13:05;101981.56;;;9.44;100.00
61506;BME280;47366;51.916;4.574;2023-02-19T01:15:32;101984.31;;;9.43;100.00
61506;BME280;47366;51.916;4.574;2023-02-19T01:17:57;101986.06;;;9.44;100.00
61506;BME280;47366;51.916;4.574;2023-02-19T01:20:22;101995.09;;;9.44;100.00
61506;BME280;47366;51.916;4.574;2023-02-19T01:22:48;101989.72;;;9.43;100.00
61506;BME280;47366;51.916;4.574;2023-02-19T01:25:13;101992.47;;;9.41;100.00
61506;BME280;47366;51.916;4.574;2023-02-19T01:27:38;101997.72;;;9.46;100.00
61506;BME280;47366;51.916;4.574;2023-02-19T01:30:04;102011.25;;;9.46;100.00
61506;BME280;47366;51.916;4.574;2023-02-19T01:32:29;102002.25;;;9.45;100.00
61506;BME280;47366;51.916;4.574;2023-02-19T01:34:54;102001.34;;;9.46;100.00
61506;BME280;47366;51.916;4.574;2023-02-19T01:37:20;101998.66;;;9.45;100.00
61506;BME280;47366;51.916;4.574;2023-02-19T01:39:46;102004.91;;;9.47;100.00
61506;BME280;47366;51.916;4.574;2023-02-19T01:42:13;101999.50;;;9.47;99.87
61506;BME280;47366;51.916;4.574;2023-02-19T01:47:09;102004.03;;;9.46;99.82
61506;BME280;47366;51.916;4.574;2023-02-19T01:49:44;101993.13;;;9.48;99.60
61506;BME280;47366;51.916;4.574;2023-02-19T01:52:45;101998.50;;;9.49;99.71
61506;BME280;47366;51.916;4.574;2023-02-19T01:55:11;102004.91;;;9.47;99.91
61506;BME280;47366;51.916;4.574;2023-02-19T01:57:40;102001.25;;;9.48;100.00
61506;BME280;47366;51.916;4.574;2023-02-19T02:00:09;102001.25;;;9.48;99.71
61506;BME280;47366;51.916;4.574;2023-02-19T02:02:38;102002.13;;;9.48;99.70
61506;BME280;47366;51.916;4.574;2023-02-19T02:05:08;101999.53;;;9.45;99.41
61506;BME280;47366;51.916;4.574;2023-02-19T02:07:35;102004.97;;;9.45;99.51
61506;BME280;47366;51.916;4.574;2023-02-19T02:10:19;102010.41;;;9.44;99.25
61506;BME280;47366;51.916;4.574;2023-02-19T02:12:47;102008.53;;;9.46;99.17
61506;BME280;47366;51.916;4.574;2023-02-19T02:15:14;102008.50;;;9.47;99.32
61506;BME280;47366;51.916;4.574;2023-02-19T02:18:01;102012.06;;;9.48;98.82
61506;BME280;47366;51.916;4.574;2023-02-19T02:21:02;102021.00;;;9.50;98.74
61506;BME280;47366;51.916;4.574;2023-02-19T02:24:10;102015.56;;;9.51;98.76
61506;BME280;47366;51.916;4.574;2023-02-19T02:32:34;102016.44;;;9.52;98.70
61506;BME280;47366;51.916;4.574;2023-02-19T02:35:09;102019.13;;;9.52;98.38
61506;BME280;47366;51.916;4.574;2023-02-19T02:37:38;102023.59;;;9.53;98.43
61506;BME280;47366;51.916;4.574;2023-02-19T02:40:07;102024.41;;;9.55;98.27
61506;BME280;47366;51.916;4.574;2023-02-19T02:42:37;102021.72;;;9.55;98.37
61506;BME280;47366;51.916;4.574;2023-02-19T02:45:22;102014.47;;;9.55;98.16
61506;BME280;47366;51.916;4.574;2023-02-19T02:50:34;102024.38;;;9.56;97.56
61506;BME280;47366;51.916;4.574;2023-02-19T02:53:08;102015.28;;;9.57;97.91
61506;BME280;47366;51.916;4.574;2023-02-19T02:55:54;102030.59;;;9.59;97.30
61506;BME280;47366;51.916;4.574;2023-02-19T02:58:22;102031.44;;;9.61;97.37
61506;BME280;47366;51.916;4.574;2023-02-19T03:00:53;102033.22;;;9.60;97.21
61506;BME280;47366;51.916;4.574;2023-02-19T03:03:42;102030.47;;;9.62;97.34
61506;BME280;47366;51.916;4.574;2023-02-19T03:06:10;102031.44;;;9.61;97.38
61506;BME280;47366;51.916;4.574;2023-02-19T03:08:48;102044.84;;;9.64;97.27
61506;BME280;47366;51.916;4.574;2023-02-19T03:11:16;102032.19;;;9.64;97.14
61506;BME280;47366;51.916;4.574;2023-02-19T03:14:23;102046.66;;;9.63;97.23
61506;BME280;47366;51.916;4.574;2023-02-19T03:17:16;102039.41;;;9.64;96.79
61506;BME280;47366;51.916;4.574;2023-02-19T03:20:04;102043.97;;;9.63;96.72
61506;BME280;47366;51.916;4.574;2023-02-19T03:22:33;102045.72;;;9.64;97.01
61506;BME280;47366;51.916;4.574;2023-02-19T03:25:11;102041.25;;;9.63;96.97
61506;BME280;47366;51.916;4.574;2023-02-19T03:27:57;102042.19;;;9.62;96.74
61506;BME280;47366;51.916;4.574;2023-02-19T03:30:28;102046.72;;;9.62;96.65
61506;BME280;47366;51.916;4.574;2023-02-19T03:32:57;102052.13;;;9.62;96.22
61506;BME280;47366;51.916;4.574;2023-02-19T03:35:26;102055.69;;;9.62;96.48
61506;BME280;47366;51.916;4.574;2023-02-19T03:40:24;102068.31;;;9.63;96.38
61506;BME280;47366;51.916;4.574;2023-02-19T03:43:17;102062.88;;;9.63;96.12
61506;BME280;47366;51.916;4.574;2023-02-19T03:45:52;102066.53;;;9.62;96.18
61506;BME280;47366;51.916;4.574;2023-02-19T03:48:35;102066.53;;;9.62;96.15
61506;BME280;47366;51.916;4.574;2023-02-19T03:51:32;102078.28;;;9.61;95.83
61506;BME280;47366;51.916;4.574;2023-02-19T03:54:28;102086.41;;;9.61;95.92
61506;BME280;47366;51.916;4.574;2023-02-19T03:57:40;102080.22;;;9.57;94.95
61506;BME280;47366;51.916;4.574;2023-02-19T04:00:12;102085.72;;;9.56;95.46
61506;BME280;47366;51.916;4.574;2023-02-19T04:02:55;102089.41;;;9.53;95.11
61506;BME280;47366;51.916;4.574;2023-02-19T04:05:25;102099.28;;;9.54;95.12
61506;BME280;47366;51.916;4.574;2023-02-19T04:07:54;102088.63;;;9.50;94.91
61506;BME280;47366;51.916;4.574;2023-02-19T04:10:22;102095.00;;;9.49;95.05
61506;BME280;47366;51.916;4.574;2023-02-19T04:12:53;102095.00;;;9.49;95.69
61506;BME280;47366;51.916;4.574;2023-02-19T04:15:20;102104.91;;;9.48;95.47
61506;BME280;47366;51.916;4.574;2023-02-19T04:17:53;102095.03;;;9.47;96.10
61506;BME280;47366;51.916;4.574;2023-02-19T04:20:21;102105.91;;;9.46;96.67
61506;BME280;47366;51.916;4.574;2023-02-19T04:22:47;102097.84;;;9.44;96.91
61506;BME280;47366;51.916;4.574;2023-02-19T04:25:13;102111.47;;;9.41;97.43
61506;BME280;47366;51.916;4.574;2023-02-19T04:27:38;102119.53;;;9.43;97.32
61506;BME280;47366;51.916;4.574;2023-02-19T04:30:06;102119.66;;;9.40;97.40
61506;BME280;47366;51.916;4.574;2023-02-19T04:32:32;102128.59;;;9.42;97.83
61506;BME280;47366;51.916;4.574;2023-02-19T04:34:58;102132.31;;;9.39;98.14
61506;BME280;47366;51.916;4.574;2023-02-19T04:37:23;102127.06;;;9.34;98.58
61506;BME280;47366;51.916;4.574;2023-02-19T04:39:48;102143.22;;;9.36;98.93
61506;BME280;47366;51.916;4.574;2023-02-19T04:42:14;102140.59;;;9.34;98.92
61506;BME280;47366;51.916;4.574;2023-02-19T04:44:39;102136.22;;;9.30;98.87
61506;BME280;47366;51.916;4.574;2023-02-19T04:47:04;102151.47;;;9.31;99.08
61506;BME280;47366;51.916;4.574;2023-02-19T04:49:30;102147.94;;;9.29;99.29
61506;BME280;47366;51.916;4.574;2023-02-19T04:51:55;102155.28;;;9.26;98.91
61506;BME280;47366;51.916;4.574;2023-02-19T04:54:20;102157.97;;;9.27;98.74
61506;BME280;47366;51.916;4.574;2023-02-19T04:56:46;102156.06;;;9.29;98.76
61506;BME280;47366;51.916;4.574;2023-02-19T04:59:11;102169.66;;;9.28;98.71
61506;BME280;47366;51.916;4.574;2023-02-19T05:01:37;102172.28;;;9.29;98.54
61506;BME280;47366;51.916;4.574;2023-02-19T05:04:02;102173.22;;;9.28;98.03
61506;BME280;47366;51.916;4.574;2023-02-19T05:06:29;102189.44;;;9.28;97.85
61506;BME280;47366;51.916;4.574;2023-02-19T05:08:54;102183.22;;;9.26;97.65
61506;BME280;47366;51.916;4.574;2023-02-19T05:11:19;102185.78;;;9.29;97.43
61506;BME280;47366;51.916;4.574;2023-02-19T05:13:44;102187.69;;;9.27;97.44
61506;BME280;47366;51.916;4.574;2023-02-19T05:16:12;102198.50;;;9.27;97.04
61506;BME280;47366;51.916;4.574;2023-02-19T05:18:38;102194.91;;;9.27;97.13
61506;BME280;47366;51.916;4.574;2023-02-19T05:21:04;102196.84;;;9.23;97.21
61506;BME280;47366;51.916;4.574;2023-02-19T05:23:30;102205.78;;;9.25;97.03
61506;BME280;47366;51.916;4.574;2023-02-19T05:25:55;102212.19;;;9.23;97.19
61506;BME280;47366;51.916;4.574;2023-02-19T05:28:21;102213.06;;;9.23;97.07
61506;BME280;47366;51.916;4.574;2023-02-19T05:30:53;102216.69;;;9.22;97.22
61506;BME280;47366;51.916;4.574;2023-02-19T05:33:20;102225.75;;;9.21;97.75
61506;BME280;47366;51.916;4.574;2023-02-19T05:35:51;102224.03;;;9.19;98.16
61506;BME280;47366;51.916;4.574;2023-02-19T05:38:17;102224.03;;;9.19;98.57
61506;BME280;47366;51.916;4.574;2023-02-19T05:40:43;102208.91;;;9.13;98.72
61506;BME280;47366;51.916;4.574;2023-02-19T05:43:09;102209.00;;;9.10;98.88
61506;BME280;47366;51.916;4.574;2023-02-19T05:45:35;102213.53;;;9.09;99.53
61506;BME280;47366;51.916;4.574;2023-02-19T05:48:01;102205.59;;;9.03;99.68
61506;BME280;47366;51.916;4.574;2023-02-19T05:50:30;102211.00;;;9.03;100.00
61506;BME280;47366;51.916;4.574;2023-02-19T05:52:59;102211.09;;;9.02;100.00
61506;BME280;47366;51.916;4.574;2023-02-19T05:55:24;102209.25;;;9.02;100.00
61506;BME280;47366;51.916;4.574;2023-02-19T05:57:49;102217.41;;;9.01;100.00
61506;BME280;47366;51.916;4.574;2023-02-19T06:00:17;102224.53;;;9.03;100.00
61506;BME280;47366;51.916;4.574;2023-02-19T06:02:43;102222.88;;;8.99;100.00
61506;BME280;47366;51.916;4.574;2023-02-19T06:05:08;102228.31;;;8.98;100.00
61506;BME280;47366;51.916;4.574;2023-02-19T06:07:34;102232.75;;;9.00;100.00
61506;BME280;47366;51.916;4.574;2023-02-19T06:10:00;102227.41;;;8.99;100.00
61506;BME280;47366;51.916;4.574;2023-02-19T06:12:26;102240.91;;;8.99;100.00
61506;BME280;47366;51.916;4.574;2023-02-19T06:14:51;102247.34;;;8.95;100.00
61506;BME280;47366;51.916;4.574;2023-02-19T06:17:17;102249.09;;;8.96;100.00
61506;BME280;47366;51.916;4.574;2023-02-19T06:19:42;102246.50;;;8.92;100.00
61506;BME280;47366;51.916;4.574;2023-02-19T06:22:08;102253.75;;;8.92;100.00
61506;BME280;47366;51.916;4.574;2023-02-19T06:24:33;102258.34;;;8.88;100.00
61506;BME280;47366;51.916;4.574;2023-02-19T06:27:00;102266.38;;;8.91;100.00
61506;BME280;47366;51.916;4.574;2023-02-19T06:29:25;102261.91;;;8.89;100.00
61506;BME280;47366;51.916;4.574;2023-02-19T06:31:50;102263.75;;;8.88;100.00
61506;BME280;47366;51.916;4.574;2023-02-19T06:34:16;102264.69;;;8.87;100.00
61506;BME280;47366;51.916;4.574;2023-02-19T06:36:41;102272.81;;;8.87;100.00
61506;BME280;47366;51.916;4.574;2023-02-19T06:39:08;102271.91;;;8.87;100.00
61506;BME280;47366;51.916;4.574;2023-02-19T06:41:33;102277.41;;;8.84;100.00
61506;BME280;47366;51.916;4.574;2023-02-19T06:43:59;102275.75;;;8.80;100.00
61506;BME280;47366;51.916;4.574;2023-02-19T06:46:25;102281.03;;;8.83;100.00
61506;BME280;47366;51.916;4.574;2023-02-19T06:48:50;102283.75;;;8.83;100.00
61506;BME280;47366;51.916;4.574;2023-02-19T06:51:18;102281.09;;;8.81;100.00
61506;BME280;47366;51.916;4.574;2023-02-19T06:53:46;102286.41;;;8.84;100.00
61506;BME280;47366;51.916;4.574;2023-02-19T06:58:49;102297.25;;;8.83;100.00
61506;BME280;47366;51.916;4.574;2023-02-19T07:01:14;102285.66;;;8.79;100.00
61506;BME280;47366;51.916;4.574;2023-02-19T07:03:40;102295.41;;;8.85;100.00
61506;BME280;47366;51.916;4.574;2023-02-19T07:06:05;102303.50;;;8.85;100.00
61506;BME280;47366;51.916;4.574;2023-02-19T07:08:31;102308.84;;;8.86;100.00
61506;BME280;47366;51.916;4.574;2023-02-19T07:10:57;102312.44;;;8.87;100.00
61506;BME280;47366;51.916;4.574;2023-02-19T07:13:24;102320.63;;;8.84;100.00
61506;BME280;47366;51.916;4.574;2023-02-19T07:15:51;102322.41;;;8.85;100.00
61506;BME280;47366;51.916;4.574;2023-02-19T07:18:21;102326.09;;;8.82;100.00
61506;BME280;47366;51.916;4.574;2023-02-19T07:20:46;102326.88;;;8.86;100.00
61506;BME280;47366;51.916;4.574;2023-02-19T07:23:12;102331.38;;;8.87;100.00
61506;BME280;47366;51.916;4.574;2023-02-19T07:25:37;102340.47;;;8.84;100.00
61506;BME280;47366;51.916;4.574;2023-02-19T07:28:03;102347.63;;;8.85;100.00
61506;BME280;47366;51.916;4.574;2023-02-19T07:30:28;102347.63;;;8.85;100.00
61506;BME280;47366;51.916;4.574;2023-02-19T07:32:54;102353.97;;;8.84;100.00
61506;BME280;47366;51.916;4.574;2023-02-19T07:35:19;102361.13;;;8.85;100.00
61506;BME280;47366;51.916;4.574;2023-02-19T07:37:44;102378.28;;;8.84;100.00
61506;BME280;47366;51.916;4.574;2023-02-19T07:40:10;102382.00;;;8.80;100.00
61506;BME280;47366;51.916;4.574;2023-02-19T07:42:35;102381.03;;;8.83;100.00
61506;BME280;47366;51.916;4.574;2023-02-19T07:45:00;102379.19;;;8.83;100.00
61506;BME280;47366;51.916;4.574;2023-02-19T07:47:28;102376.38;;;8.86;100.00
61506;BME280;47366;51.916;4.574;2023-02-19T07:49:53;102384.47;;;8.88;100.00
61506;BME280;47366;51.916;4.574;2023-02-19T07:52:18;102389.97;;;8.85;100.00
61506;BME280;47366;51.916;4.574;2023-02-19T07:54:44;102407.06;;;8.85;100.00
61506;BME280;47366;51.916;4.574;2023-02-19T07:57:09;102412.38;;;8.88;100.00
61506;BME280;47366;51.916;4.574;2023-02-19T07:59:34;102399.81;;;8.87;100.00
61506;BME280;47366;51.916;4.574;2023-02-19T08:02:00;102411.53;;;8.86;100.00
61506;BME280;47366;51.916;4.574;2023-02-19T08:04:46;102417.84;;;8.87;100.00
61506;BME280;47366;51.916;4.574;2023-02-19T08:07:11;102421.53;;;8.83;100.00
61506;BME280;47366;51.916;4.574;2023-02-19T08:09:36;102416.19;;;8.81;100.00
61506;BME280;47366;51.916;4.574;2023-02-19T08:12:02;102428.72;;;8.84;100.00
61506;BME280;47366;51.916;4.574;2023-02-19T08:14:46;102432.38;;;8.81;100.00
61506;BME280;47366;51.916;4.574;2023-02-19T08:17:11;102442.28;;;8.82;100.00
61506;BME280;47366;51.916;4.574;2023-02-19T08:19:36;102441.34;;;8.83;100.00
61506;BME280;47366;51.916;4.574;2023-02-19T08:22:02;102438.72;;;8.80;100.00
61506;BME280;47366;51.916;4.574;2023-02-19T08:24:27;102439.66;;;8.79;100.00
61506;BME280;47366;51.916;4.574;2023-02-19T08:26:52;102449.63;;;8.77;100.00
61506;BME280;47366;51.916;4.574;2023-02-19T08:29:18;102450.56;;;8.76;100.00
61506;BME280;47366;51.916;4.574;2023-02-19T08:31:43;102446.94;;;8.77;100.00
61506;BME280;47366;51.916;4.574;2023-02-19T08:34:09;102450.56;;;8.76;100.00
61506;BME280;47366;51.916;4.574;2023-02-19T08:36:34;102454.09;;;8.78;100.00
61506;BME280;47366;51.916;4.574;2023-02-19T08:39:00;102450.53;;;8.78;100.00
61506;BME280;47366;51.916;4.574;2023-02-19T08:41:25;102455.84;;;8.79;100.00
61506;BME280;47366;51.916;4.574;2023-02-19T08:43:51;102444.91;;;8.84;100.00
61506;BME280;47366;51.916;4.574;2023-02-19T08:46:16;102454.72;;;8.88;100.00
61506;BME280;47366;51.916;4.574;2023-02-19T08:48:41;102448.34;;;8.90;100.00
61506;BME280;47366;51.916;4.574;2023-02-19T08:51:09;102442.84;;;8.93;100.00
61506;BME280;47366;51.916;4.574;2023-02-19T08:53:36;102452.78;;;8.93;99.78
61506;BME280;47366;51.916;4.574;2023-02-19T08:56:12;102451.72;;;8.99;99.91
61506;BME280;47366;51.916;4.574;2023-02-19T08:58:40;102457.03;;;9.02;99.58
61506;BME280;47366;51.916;4.574;2023-02-19T09:01:10;102460.59;;;9.04;99.51
61506;BME280;47366;51.916;4.574;2023-02-19T09:03:36;102443.41;;;9.05;99.33
61506;BME280;47366;51.916;4.574;2023-02-19T09:06:01;102447.94;;;9.04;99.17
61506;BME280;47366;51.916;4.574;2023-02-19T09:08:27;102431.84;;;9.00;98.74
61506;BME280;47366;51.916;4.574;2023-02-19T09:11:00;102438.97;;;9.04;98.79
61506;BME280;47366;51.916;4.574;2023-02-19T09:13:26;102444.16;;;9.10;98.49
61506;BME280;47366;51.916;4.574;2023-02-19T09:15:51;102452.00;;;9.19;98.08
61506;BME280;47366;51.916;4.574;2023-02-19T09:18:16;102458.97;;;9.28;98.12
61506;BME280;47366;51.916;4.574;2023-02-19T09:20:42;102466.81;;;9.37;97.54
61506;BME280;47366;51.916;4.574;2023-02-19T09:23:07;102476.53;;;9.43;97.27
61506;BME280;47366;51.916;4.574;2023-02-19T09:25:32;102466.34;;;9.51;97.20
61506;BME280;47366;51.916;4.574;2023-02-19T09:27:58;102474.84;;;9.68;96.73
61506;BME280;47366;51.916;4.574;2023-02-19T09:30:23;102484.13;;;9.88;96.31
61506;BME280;47366;51.916;4.574;2023-02-19T09:32:49;102502.09;;;9.90;95.53
61506;BME280;47366;51.916;4.574;2023-02-19T09:35:14;102499.09;;;9.99;94.77
61506;BME280;47366;51.916;4.574;2023-02-19T09:37:39;102504.09;;;10.12;94.60
61506;BME280;47366;51.916;4.574;2023-02-19T09:40:05;102501.56;;;10.07;93.94
61506;BME280;47366;51.916;4.574;2023-02-19T09:42:31;102513.63;;;9.97;92.31
61506;BME280;47366;51.916;4.574;2023-02-19T09:44:58;102517.66;;;10.12;93.19
61506;BME280;47366;51.916;4.574;2023-02-19T09:47:27;102509.19;;;10.23;90.91
61506;BME280;47366;51.916;4.574;2023-02-19T09:49:57;102514.56;;;10.51;90.93
61506;BME280;47366;51.916;4.574;2023-02-19T09:52:35;102529.06;;;10.75;90.28
61506;BME280;47366;51.916;4.574;2023-02-19T09:55:15;102522.13;;;10.93;89.36
61506;BME280;47366;51.916;4.574;2023-02-19T09:57:42;102540.16;;;11.19;88.78
61506;BME280;47366;51.916;4.574;2023-02-19T10:00:26;102532.28;;;10.86;87.97
61506;BME280;47366;51.916;4.574;2023-02-19T10:02:59;102540.00;;;10.73;88.19
61506;BME280;47366;51.916;4.574;2023-02-19T10:05:26;102536.00;;;10.58;88.43
61506;BME280;47366;51.916;4.574;2023-02-19T10:07:53;102540.31;;;10.37;87.47
61506;BME280;47366;51.916;4.574;2023-02-19T10:10:26;102556.09;;;10.23;86.96
61506;BME280;47366;51.916;4.574;2023-02-19T10:12:55;102557.50;;;10.08;87.42
61506;BME280;47366;51.916;4.574;2023-02-19T10:15:37;102566.78;;;9.99;88.64
61506;BME280;47366;51.916;4.574;2023-02-19T10:18:05;102567.75;;;9.97;87.91
61506;BME280;47366;51.916;4.574;2023-02-19T10:20:31;102553.53;;;9.90;88.81
61506;BME280;47366;51.916;4.574;2023-02-19T10:23:01;102567.16;;;9.87;87.99
61506;BME280;47366;51.916;4.574;2023-02-19T10:25:27;102575.44;;;9.83;87.76
61506;BME280;47366;51.916;4.574;2023-02-19T10:27:54;102578.31;;;9.76;88.41
61506;BME280;47366;51.916;4.574;2023-02-19T10:30:24;102584.69;;;9.74;88.15
61506;BME280;47366;51.916;4.574;2023-02-19T10:33:12;102583.81;;;9.73;88.19
61506;BME280;47366;51.916;4.574;2023-02-19T10:38:16;102596.50;;;9.71;88.38
61506;BME280;47366;51.916;4.574;2023-02-19T10:40:44;102596.75;;;9.64;87.70
61506;BME280;47366;51.916;4.574;2023-02-19T10:43:20;102596.66;;;9.65;88.07
61506;BME280;47366;51.916;4.574;2023-02-19T10:45:47;102603.25;;;9.56;87.97
61506;BME280;47366;51.916;4.574;2023-02-19T10:48:27;102597.97;;;9.52;88.20
61506;BME280;47366;51.916;4.574;2023-02-19T10:50:58;102599.13;;;9.43;87.97
61506;BME280;47366;51.916;4.574;2023-02-19T10:56:23;102610.00;;;9.42;89.02
61506;BME280;47366;51.916;4.574;2023-02-19T10:58:49;102593.19;;;9.30;88.81
61506;BME280;47366;51.916;4.574;2023-02-19T11:03:44;102613.13;;;9.26;89.64
61506;BME280;47366;51.916;4.574;2023-02-19T11:06:11;102607.81;;;9.23;89.90
61506;BME280;47366;51.916;4.574;2023-02-19T11:08:53;102611.50;;;9.19;89.79
61506;BME280;47366;51.916;4.574;2023-02-19T11:11:28;102615.19;;;9.17;90.49
61506;BME280;47366;51.916;4.574;2023-02-19T11:13:56;102620.72;;;9.12;90.78
61506;BME280;47366;51.916;4.574;2023-02-19T11:16:23;102609.03;;;9.11;90.24
61506;BME280;47366;51.916;4.574;2023-02-19T11:18:53;102604.69;;;9.06;90.56
61506;BME280;47366;51.916;4.574;2023-02-19T11:21:25;102605.44;;;9.11;90.76
61506;BME280;47366;51.916;4.574;2023-02-19T11:23:53;102605.47;;;9.09;91.29
61506;BME280;47366;51.916;4.574;2023-02-19T11:26:23;102595.59;;;9.08;91.05
61506;BME280;47366;51.916;4.574;2023-02-19T11:31:30;102601.03;;;9.07;90.11
61506;BME280;47366;51.916;4.574;2023-02-19T11:34:26;102592.78;;;9.13;90.47
61506;BME280;47366;51.916;4.574;2023-02-19T11:37:26;102595.03;;;9.28;89.95
61506;BME280;47366;51.916;4.574;2023-02-19T11:39:51;102588.41;;;9.40;89.94
61506;BME280;47366;51.916;4.574;2023-02-19T11:42:32;102590.63;;;9.57;90.04
61506;BME280;47366;51.916;4.574;2023-02-19T11:48:08;102594.78;;;9.69;88.92
61506;BME280;47366;51.916;4.574;2023-02-19T11:53:24;102589.19;;;9.75;88.80
61506;BME280;47366;51.916;4.574;2023-02-19T12:15:30;102609.94;;;9.74;89.07
61506;BME280;47366;51.916;4.574;2023-02-19T12:31:48;102614.88;;;9.60;89.35
61506;BME280;47366;51.916;4.574;2023-02-19T12:39:49;102614.19;;;9.53;90.66
61506;BME280;47366;51.916;4.574;2023-02-19T12:45:34;102633.94;;;9.55;91.46
61506;BME280;47366;51.916;4.574;2023-02-19T12:48:11;102638.53;;;9.53;91.68
61506;BME280;47366;51.916;4.574;2023-02-19T12:50:39;102635.81;;;9.53;91.67
61506;BME280;47366;51.916;4.574;2023-02-19T12:53:23;102636.50;;;9.60;91.72
61506;BME280;47366;51.916;4.574;2023-02-19T12:55:50;102637.13;;;9.70;91.33
61506;BME280;47366;51.916;4.574;2023-02-19T12:58:27;102642.53;;;9.70;90.60
61506;BME280;47366;51.916;4.574;2023-02-19T13:00:56;102656.00;;;9.73;90.20
61506;BME280;47366;51.916;4.574;2023-02-19T13:06:09;102657.03;;;9.67;90.15
61506;BME280;47366;51.916;4.574;2023-02-19T13:08:48;102665.28;;;9.63;89.29
61506;BME280;47366;51.916;4.574;2023-02-19T13:11:27;102662.72;;;9.58;88.16
61506;BME280;47366;51.916;4.574;2023-02-19T13:13:57;102679.03;;;9.55;87.88
61506;BME280;47366;51.916;4.574;2023-02-19T13:16:24;102679.22;;;9.49;87.69
61506;BME280;47366;51.916;4.574;2023-02-19T13:18:59;102687.66;;;9.36;88.70
61506;BME280;47366;51.916;4.574;2023-02-19T13:21:29;102695.19;;;9.25;87.62
61506;BME280;47366;51.916;4.574;2023-02-19T13:24:23;102690.91;;;9.17;88.46
61506;BME280;47366;51.916;4.574;2023-02-19T13:27:02;102693.69;;;9.13;89.24
61506;BME280;47366;51.916;4.574;2023-02-19T13:32:36;102692.91;;;9.08;89.39
61506;BME280;47366;51.916;4.574;2023-02-19T13:37:48;102691.22;;;9.04;88.98
61506;BME280;47366;51.916;4.574;2023-02-19T13:40:33;102707.25;;;9.10;88.96
61506;BME280;47366;51.916;4.574;2023-02-19T13:43:02;102706.22;;;9.16;89.24
61506;BME280;47366;51.916;4.574;2023-02-19T13:45:41;102705.06;;;9.26;88.91
61506;BME280;47366;51.916;4.574;2023-02-19T13:48:25;102705.81;;;9.31;87.50
61506;BME280;47366;51.916;4.574;2023-02-19T13:53:56;102718.09;;;9.45;87.73
61506;BME280;47366;51.916;4.574;2023-02-19T13:59:24;102729.22;;;9.67;86.20
61506;BME280;47366;51.916;4.574;2023-02-19T14:09:48;102740.53;;;9.48;87.31
61506;BME280;47366;51.916;4.574;2023-02-19T14:14:48;102739.13;;;9.33;87.81
61506;BME280;47366;51.916;4.574;2023-02-19T14:25:43;102725.59;;;9.33;86.57
61506;BME280;47366;51.916;4.574;2023-02-19T14:33:09;102734.47;;;9.39;86.43
61506;BME280;47366;51.916;4.574;2023-02-19T14:35:41;102728.09;;;9.41;87.15
61506;BME280;47366;51.916;4.574;2023-02-19T14:38:17;102732.28;;;9.53;87.24
61506;BME280;47366;51.916;4.574;2023-02-19T14:40:45;102735.81;;;9.56;86.30
61506;BME280;47366;51.916;4.574;2023-02-19T14:43:16;102731.38;;;9.54;85.96
61506;BME280;47366;51.916;4.574;2023-02-19T14:45:46;102741.34;;;9.52;85.79
61506;BME280;47366;51.916;4.574;2023-02-19T14:48:17;102732.59;;;9.42;85.97
61506;BME280;47366;51.916;4.574;2023-02-19T14:50:47;102729.94;;;9.41;86.08
61506;BME280;47366;51.916;4.574;2023-02-19T14:53:15;102722.66;;;9.43;85.69
61506;BME280;47366;51.916;4.574;2023-02-19T14:55:41;102733.47;;;9.43;85.13
61506;BME280;47366;51.916;4.574;2023-02-19T14:58:12;102728.03;;;9.44;86.33
61506;BME280;47366;51.916;4.574;2023-02-19T15:00:40;102726.44;;;9.37;85.20
61506;BME280;47366;51.916;4.574;2023-02-19T15:05:53;102731.31;;;9.23;86.16